KDZB Airport (Horseshoe Bay Resort) Information

FAA: DZB - ICAO: KDZB

KDZB Airport Location

State Texas
County Llano
City Horseshoe Bay
KDZB Airport is 0 miles north of Horseshoe Bay, TX.
Latitude 30-31-37.3850N
Longitude 098-21-31.5250W
Elevation 1,093ft

KDZB Airport METARs

METAR KDZB 282235Z AUTO 15012G18KT 10SM CLR 36/13 A2977 RMK AO2 T03570128
Altimeter 29.77"
Temperature 35.7°C (96.3°F)
Wind 150° at 12KT with gusts to 18KT
Clouds Skies are clear.
Visibility 10.0mi
Time observed: 2022-05-28T22:35:00Z

KDZB Airport Details

Status Operational
Activation February 1972
Ownership Private
Usage Public
Chart SAN ANTONIO
ATC on-site No
Beacon schedule N/A
Beacon color clear green

KDZB Airport Contacts

Owner HORSESHOE BAY RSRT & CONF CTR
Owner address BOX 7766, HORSESHOE BAY, TX 78657
Owner phone 830-598-8600
Manager ALLEN SMITH
Manager address PO BOX 6156, AUSTIN, TX 78762
Manager phone 512-385-2020

KDZB Airport (Horseshoe Bay Resort) Radio Frequencies

KDZB (Airport) Radio Frequencies

UNICOM 122.8
Common traffic advisory frequency (CTAF) 122.8